sensor_id;sensor_type;location;lat;lon;timestamp;P1;durP1;ratioP1;P2;durP2;ratioP2
52033;SDS011;38045;52.988;6.536;2023-08-06T00:02:23;13.73;;;12.43;;
52033;SDS011;38045;52.988;6.536;2023-08-06T00:04:48;13.77;;;12.50;;
52033;SDS011;38045;52.988;6.536;2023-08-06T00:07:14;16.27;;;14.35;;
52033;SDS011;38045;52.988;6.536;2023-08-06T00:09:39;15.20;;;12.65;;
52033;SDS011;38045;52.988;6.536;2023-08-06T00:12:05;15.27;;;11.93;;
52033;SDS011;38045;52.988;6.536;2023-08-06T00:14:31;13.48;;;12.15;;
52033;SDS011;38045;52.988;6.536;2023-08-06T00:16:56;14.38;;;12.88;;
52033;SDS011;38045;52.988;6.536;2023-08-06T00:19:22;13.57;;;12.20;;
52033;SDS011;38045;52.988;6.536;2023-08-06T00:21:48;12.20;;;11.05;;
52033;SDS011;38045;52.988;6.536;2023-08-06T00:24:13;12.40;;;11.27;;
52033;SDS011;38045;52.988;6.536;2023-08-06T00:26:39;14.70;;;11.95;;
52033;SDS011;38045;52.988;6.536;2023-08-06T00:29:04;14.35;;;12.95;;
52033;SDS011;38045;52.988;6.536;2023-08-06T00:31:30;13.63;;;12.25;;
52033;SDS011;38045;52.988;6.536;2023-08-06T00:33:55;13.93;;;12.40;;
52033;SDS011;38045;52.988;6.536;2023-08-06T00:36:21;13.05;;;11.77;;
52033;SDS011;38045;52.988;6.536;2023-08-06T00:38:47;12.40;;;11.00;;
52033;SDS011;38045;52.988;6.536;2023-08-06T00:41:13;13.13;;;11.90;;
52033;SDS011;38045;52.988;6.536;2023-08-06T00:43:39;12.15;;;10.95;;
52033;SDS011;38045;52.988;6.536;2023-08-06T00:46:04;13.40;;;12.02;;
52033;SDS011;38045;52.988;6.536;2023-08-06T00:48:30;13.70;;;12.43;;
52033;SDS011;38045;52.988;6.536;2023-08-06T00:50:56;13.55;;;12.25;;
52033;SDS011;38045;52.988;6.536;2023-08-06T00:53:22;13.95;;;11.23;;
52033;SDS011;38045;52.988;6.536;2023-08-06T00:55:49;12.27;;;11.18;;
52033;SDS011;38045;52.988;6.536;2023-08-06T00:58:15;14.20;;;12.80;;
52033;SDS011;38045;52.988;6.536;2023-08-06T01:00:41;12.35;;;11.15;;
52033;SDS011;38045;52.988;6.536;2023-08-06T01:03:07;12.35;;;9.93;;
52033;SDS011;38045;52.988;6.536;2023-08-06T01:05:33;13.55;;;12.15;;
52033;SDS011;38045;52.988;6.536;2023-08-06T01:13:43;11.45;;;10.48;;
52033;SDS011;38045;52.988;6.536;2023-08-06T01:16:17;11.48;;;10.38;;
52033;SDS011;38045;52.988;6.536;2023-08-06T01:18:46;13.38;;;11.25;;
52033;SDS011;38045;52.988;6.536;2023-08-06T01:23:40;12.13;;;10.93;;
52033;SDS011;38045;52.988;6.536;2023-08-06T01:28:55;11.30;;;10.20;;
52033;SDS011;38045;52.988;6.536;2023-08-06T01:31:31;10.20;;;9.30;;
52033;SDS011;38045;52.988;6.536;2023-08-06T01:34:00;12.13;;;10.93;;
52033;SDS011;38045;52.988;6.536;2023-08-06T01:36:26;15.13;;;11.57;;
52033;SDS011;38045;52.988;6.536;2023-08-06T01:38:53;13.15;;;11.32;;
52033;SDS011;38045;52.988;6.536;2023-08-06T01:41:19;11.82;;;10.27;;
52033;SDS011;38045;52.988;6.536;2023-08-06T01:43:45;11.27;;;10.18;;
52033;SDS011;38045;52.988;6.536;2023-08-06T01:46:11;11.10;;;9.80;;
52033;SDS011;38045;52.988;6.536;2023-08-06T01:48:36;12.05;;;10.80;;
52033;SDS011;38045;52.988;6.536;2023-08-06T01:51:05;11.30;;;9.95;;
52033;SDS011;38045;52.988;6.536;2023-08-06T01:53:31;13.45;;;10.10;;
52033;SDS011;38045;52.988;6.536;2023-08-06T01:55:57;10.20;;;9.30;;
52033;SDS011;38045;52.988;6.536;2023-08-06T01:58:23;11.35;;;10.23;;
52033;SDS011;38045;52.988;6.536;2023-08-06T02:00:49;9.70;;;8.88;;
52033;SDS011;38045;52.988;6.536;2023-08-06T02:03:14;16.08;;;10.02;;
52033;SDS011;38045;52.988;6.536;2023-08-06T02:05:40;13.55;;;10.43;;
52033;SDS011;38045;52.988;6.536;2023-08-06T02:08:06;9.55;;;8.63;;
52033;SDS011;38045;52.988;6.536;2023-08-06T02:10:31;10.57;;;9.57;;
52033;SDS011;38045;52.988;6.536;2023-08-06T02:12:57;11.23;;;10.02;;
52033;SDS011;38045;52.988;6.536;2023-08-06T02:15:23;10.30;;;9.27;;
52033;SDS011;38045;52.988;6.536;2023-08-06T02:17:49;9.70;;;8.73;;
52033;SDS011;38045;52.988;6.536;2023-08-06T02:20:14;10.43;;;9.45;;
52033;SDS011;38045;52.988;6.536;2023-08-06T02:22:40;12.13;;;10.05;;
52033;SDS011;38045;52.988;6.536;2023-08-06T02:25:05;11.13;;;9.57;;
52033;SDS011;38045;52.988;6.536;2023-08-06T02:27:31;11.63;;;10.23;;
52033;SDS011;38045;52.988;6.536;2023-08-06T02:29:57;11.20;;;10.10;;
52033;SDS011;38045;52.988;6.536;2023-08-06T02:32:22;11.80;;;9.82;;
52033;SDS011;38045;52.988;6.536;2023-08-06T02:34:48;13.60;;;10.00;;
52033;SDS011;38045;52.988;6.536;2023-08-06T02:37:14;11.60;;;10.20;;
52033;SDS011;38045;52.988;6.536;2023-08-06T02:39:39;12.55;;;11.32;;
52033;SDS011;38045;52.988;6.536;2023-08-06T02:42:08;17.05;;;10.38;;
52033;SDS011;38045;52.988;6.536;2023-08-06T02:44:34;10.65;;;9.68;;
52033;SDS011;38045;52.988;6.536;2023-08-06T02:47:00;11.70;;;10.65;;
52033;SDS011;38045;52.988;6.536;2023-08-06T02:49:26;10.20;;;9.07;;
52033;SDS011;38045;52.988;6.536;2023-08-06T02:51:51;10.80;;;9.45;;
52033;SDS011;38045;52.988;6.536;2023-08-06T02:54:20;14.73;;;9.95;;
52033;SDS011;38045;52.988;6.536;2023-08-06T02:56:46;10.85;;;9.77;;
52033;SDS011;38045;52.988;6.536;2023-08-06T02:59:12;10.38;;;9.48;;
52033;SDS011;38045;52.988;6.536;2023-08-06T03:01:38;10.90;;;9.90;;
52033;SDS011;38045;52.988;6.536;2023-08-06T03:04:04;10.93;;;9.65;;
52033;SDS011;38045;52.988;6.536;2023-08-06T03:06:30;9.70;;;8.82;;
52033;SDS011;38045;52.988;6.536;2023-08-06T03:08:55;12.32;;;11.05;;
52033;SDS011;38045;52.988;6.536;2023-08-06T03:11:21;10.88;;;9.88;;
52033;SDS011;38045;52.988;6.536;2023-08-06T03:13:47;10.70;;;9.55;;
52033;SDS011;38045;52.988;6.536;2023-08-06T03:16:13;12.00;;;10.98;;
52033;SDS011;38045;52.988;6.536;2023-08-06T03:18:38;11.88;;;10.65;;
52033;SDS011;38045;52.988;6.536;2023-08-06T03:21:04;11.32;;;10.18;;
52033;SDS011;38045;52.988;6.536;2023-08-06T03:23:30;9.93;;;9.02;;
52033;SDS011;38045;52.988;6.536;2023-08-06T03:25:56;10.77;;;9.68;;
52033;SDS011;38045;52.988;6.536;2023-08-06T03:28:25;11.45;;;10.30;;
52033;SDS011;38045;52.988;6.536;2023-08-06T03:30:58;10.82;;;9.73;;
52033;SDS011;38045;52.988;6.536;2023-08-06T03:33:25;10.55;;;9.45;;
52033;SDS011;38045;52.988;6.536;2023-08-06T03:35:50;12.00;;;10.95;;
52033;SDS011;38045;52.988;6.536;2023-08-06T03:38:16;10.43;;;9.43;;
52033;SDS011;38045;52.988;6.536;2023-08-06T03:40:41;13.73;;;11.30;;
52033;SDS011;38045;52.988;6.536;2023-08-06T03:43:08;11.88;;;9.82;;
52033;SDS011;38045;52.988;6.536;2023-08-06T03:45:33;11.23;;;10.00;;
52033;SDS011;38045;52.988;6.536;2023-08-06T03:47:59;10.95;;;9.82;;
52033;SDS011;38045;52.988;6.536;2023-08-06T03:50:25;15.40;;;10.75;;
52033;SDS011;38045;52.988;6.536;2023-08-06T03:52:50;11.25;;;9.98;;
52033;SDS011;38045;52.988;6.536;2023-08-06T03:55:16;16.58;;;10.75;;
52033;SDS011;38045;52.988;6.536;2023-08-06T03:57:41;11.80;;;10.60;;
52033;SDS011;38045;52.988;6.536;2023-08-06T04:00:07;11.75;;;9.40;;
52033;SDS011;38045;52.988;6.536;2023-08-06T04:02:33;13.02;;;10.52;;
52033;SDS011;38045;52.988;6.536;2023-08-06T04:05:00;12.70;;;11.48;;
52033;SDS011;38045;52.988;6.536;2023-08-06T04:07:26;13.38;;;12.18;;
52033;SDS011;38045;52.988;6.536;2023-08-06T04:09:58;11.57;;;10.40;;
52033;SDS011;38045;52.988;6.536;2023-08-06T04:12:26;11.82;;;10.63;;
52033;SDS011;38045;52.988;6.536;2023-08-06T04:14:52;10.93;;;9.93;;
52033;SDS011;38045;52.988;6.536;2023-08-06T04:17:19;13.63;;;11.52;;
52033;SDS011;38045;52.988;6.536;2023-08-06T04:19:46;11.20;;;10.10;;
52033;SDS011;38045;52.988;6.536;2023-08-06T04:22:15;12.80;;;11.60;;
52033;SDS011;38045;52.988;6.536;2023-08-06T04:24:41;12.93;;;11.57;;
52033;SDS011;38045;52.988;6.536;2023-08-06T04:29:36;11.45;;;10.32;;
52033;SDS011;38045;52.988;6.536;2023-08-06T04:32:02;12.50;;;9.43;;
52033;SDS011;38045;52.988;6.536;2023-08-06T04:34:29;12.82;;;11.63;;
52033;SDS011;38045;52.988;6.536;2023-08-06T04:36:54;14.02;;;12.30;;
52033;SDS011;38045;52.988;6.536;2023-08-06T04:39:20;11.50;;;10.30;;
52033;SDS011;38045;52.988;6.536;2023-08-06T04:41:45;12.23;;;11.05;;
52033;SDS011;38045;52.988;6.536;2023-08-06T04:44:11;11.55;;;10.43;;
52033;SDS011;38045;52.988;6.536;2023-08-06T04:46:37;12.32;;;11.02;;
52033;SDS011;38045;52.988;6.536;2023-08-06T04:49:02;12.00;;;10.93;;
52033;SDS011;38045;52.988;6.536;2023-08-06T04:51:28;12.18;;;10.98;;
52033;SDS011;38045;52.988;6.536;2023-08-06T04:53:53;12.88;;;11.57;;
52033;SDS011;38045;52.988;6.536;2023-08-06T04:56:19;12.68;;;11.43;;
52033;SDS011;38045;52.988;6.536;2023-08-06T04:58:44;12.80;;;11.45;;
52033;SDS011;38045;52.988;6.536;2023-08-06T05:01:10;12.20;;;11.05;;
52033;SDS011;38045;52.988;6.536;2023-08-06T05:03:36;14.20;;;12.02;;
52033;SDS011;38045;52.988;6.536;2023-08-06T05:06:01;13.85;;;12.40;;
52033;SDS011;38045;52.988;6.536;2023-08-06T05:08:27;12.30;;;11.20;;
52033;SDS011;38045;52.988;6.536;2023-08-06T05:10:53;13.60;;;12.23;;
52033;SDS011;38045;52.988;6.536;2023-08-06T05:13:18;12.90;;;11.70;;
52033;SDS011;38045;52.988;6.536;2023-08-06T05:15:44;15.70;;;13.88;;
52033;SDS011;38045;52.988;6.536;2023-08-06T05:18:11;13.57;;;12.25;;
52033;SDS011;38045;52.988;6.536;2023-08-06T05:20:37;14.48;;;12.23;;
52033;SDS011;38045;52.988;6.536;2023-08-06T05:23:04;14.40;;;12.88;;
52033;SDS011;38045;52.988;6.536;2023-08-06T05:25:30;13.25;;;11.95;;
52033;SDS011;38045;52.988;6.536;2023-08-06T05:27:56;17.33;;;13.43;;
52033;SDS011;38045;52.988;6.536;2023-08-06T05:30:22;16.23;;;14.73;;
52033;SDS011;38045;52.988;6.536;2023-08-06T05:32:47;16.05;;;13.57;;
52033;SDS011;38045;52.988;6.536;2023-08-06T05:35:13;13.60;;;12.40;;
52033;SDS011;38045;52.988;6.536;2023-08-06T05:37:39;13.82;;;12.40;;
52033;SDS011;38045;52.988;6.536;2023-08-06T05:40:04;13.43;;;12.18;;
52033;SDS011;38045;52.988;6.536;2023-08-06T05:42:30;12.85;;;11.65;;
52033;SDS011;38045;52.988;6.536;2023-08-06T05:44:56;13.40;;;12.07;;
52033;SDS011;38045;52.988;6.536;2023-08-06T05:47:22;12.80;;;11.70;;
52033;SDS011;38045;52.988;6.536;2023-08-06T05:49:47;12.50;;;11.07;;
52033;SDS011;38045;52.988;6.536;2023-08-06T05:52:13;14.05;;;12.60;;
52033;SDS011;38045;52.988;6.536;2023-08-06T05:54:38;12.07;;;11.07;;
52033;SDS011;38045;52.988;6.536;2023-08-06T05:57:05;13.20;;;11.88;;
52033;SDS011;38045;52.988;6.536;2023-08-06T05:59:31;12.23;;;10.95;;
52033;SDS011;38045;52.988;6.536;2023-08-06T06:01:57;12.43;;;11.25;;
52033;SDS011;38045;52.988;6.536;2023-08-06T06:04:23;12.45;;;11.27;;
52033;SDS011;38045;52.988;6.536;2023-08-06T06:06:48;13.50;;;12.27;;
52033;SDS011;38045;52.988;6.536;2023-08-06T06:09:14;13.63;;;11.10;;
52033;SDS011;38045;52.988;6.536;2023-08-06T06:11:39;12.13;;;10.93;;
52033;SDS011;38045;52.988;6.536;2023-08-06T06:14:05;11.90;;;10.27;;
52033;SDS011;38045;52.988;6.536;2023-08-06T06:16:31;16.50;;;11.63;;
52033;SDS011;38045;52.988;6.536;2023-08-06T06:18:56;11.27;;;10.25;;
52033;SDS011;38045;52.988;6.536;2023-08-06T06:21:22;12.07;;;10.98;;
52033;SDS011;38045;52.988;6.536;2023-08-06T06:23:49;11.93;;;10.85;;
52033;SDS011;38045;52.988;6.536;2023-08-06T06:26:16;12.40;;;11.23;;
52033;SDS011;38045;52.988;6.536;2023-08-06T06:28:43;12.23;;;11.07;;
52033;SDS011;38045;52.988;6.536;2023-08-06T06:31:08;13.27;;;11.35;;
52033;SDS011;38045;52.988;6.536;2023-08-06T06:33:34;13.40;;;12.00;;
52033;SDS011;38045;52.988;6.536;2023-08-06T06:36:00;15.38;;;12.38;;
52033;SDS011;38045;52.988;6.536;2023-08-06T06:38:28;13.98;;;12.52;;
52033;SDS011;38045;52.988;6.536;2023-08-06T06:40:54;14.00;;;12.63;;
52033;SDS011;38045;52.988;6.536;2023-08-06T06:43:21;13.27;;;11.98;;
52033;SDS011;38045;52.988;6.536;2023-08-06T06:45:46;14.63;;;13.15;;
52033;SDS011;38045;52.988;6.536;2023-08-06T06:48:17;15.27;;;13.77;;
52033;SDS011;38045;52.988;6.536;2023-08-06T06:50:42;13.82;;;12.52;;
52033;SDS011;38045;52.988;6.536;2023-08-06T06:53:08;14.65;;;13.18;;
52033;SDS011;38045;52.988;6.536;2023-08-06T06:55:33;13.70;;;12.05;;
52033;SDS011;38045;52.988;6.536;2023-08-06T06:57:59;14.40;;;13.05;;
52033;SDS011;38045;52.988;6.536;2023-08-06T07:00:24;14.30;;;12.80;;
52033;SDS011;38045;52.988;6.536;2023-08-06T07:02:50;13.20;;;12.05;;
52033;SDS011;38045;52.988;6.536;2023-08-06T07:05:17;14.43;;;13.00;;
52033;SDS011;38045;52.988;6.536;2023-08-06T07:07:43;14.13;;;11.93;;
52033;SDS011;38045;52.988;6.536;2023-08-06T07:10:08;14.18;;;12.80;;
52033;SDS011;38045;52.988;6.536;2023-08-06T07:12:34;14.38;;;13.07;;
52033;SDS011;38045;52.988;6.536;2023-08-06T07:15:02;13.15;;;11.95;;
52033;SDS011;38045;52.988;6.536;2023-08-06T07:17:30;12.73;;;11.63;;
52033;SDS011;38045;52.988;6.536;2023-08-06T07:19:55;13.23;;;11.93;;
52033;SDS011;38045;52.988;6.536;2023-08-06T07:22:21;12.90;;;11.77;;
52033;SDS011;38045;52.988;6.536;2023-08-06T07:24:46;14.27;;;13.02;;
52033;SDS011;38045;52.988;6.536;2023-08-06T07:27:12;14.07;;;12.57;;
52033;SDS011;38045;52.988;6.536;2023-08-06T07:29:37;13.80;;;12.35;;
52033;SDS011;38045;52.988;6.536;2023-08-06T07:32:03;11.43;;;10.43;;
52033;SDS011;38045;52.988;6.536;2023-08-06T07:34:29;11.43;;;10.32;;
52033;SDS011;38045;52.988;6.536;2023-08-06T07:36:55;12.50;;;11.50;;
52033;SDS011;38045;52.988;6.536;2023-08-06T07:39:20;12.77;;;11.57;;
52033;SDS011;38045;52.988;6.536;2023-08-06T07:41:47;12.32;;;10.95;;
52033;SDS011;38045;52.988;6.536;2023-08-06T07:44:13;10.63;;;9.60;;
52033;SDS011;38045;52.988;6.536;2023-08-06T07:46:38;9.82;;;8.88;;
52033;SDS011;38045;52.988;6.536;2023-08-06T07:49:04;10.55;;;9.65;;
52033;SDS011;38045;52.988;6.536;2023-08-06T07:51:30;11.82;;;10.82;;
52033;SDS011;38045;52.988;6.536;2023-08-06T07:53:55;9.55;;;8.75;;
52033;SDS011;38045;52.988;6.536;2023-08-06T07:56:21;10.40;;;9.40;;
52033;SDS011;38045;52.988;6.536;2023-08-06T07:58:46;9.93;;;8.93;;
52033;SDS011;38045;52.988;6.536;2023-08-06T08:01:12;11.27;;;10.23;;
52033;SDS011;38045;52.988;6.536;2023-08-06T08:03:38;8.60;;;7.80;;
52033;SDS011;38045;52.988;6.536;2023-08-06T08:06:03;9.70;;;8.93;;
52033;SDS011;38045;52.988;6.536;2023-08-06T08:08:29;10.57;;;9.63;;
52033;SDS011;38045;52.988;6.536;2023-08-06T08:10:54;9.90;;;9.00;;
52033;SDS011;38045;52.988;6.536;2023-08-06T08:13:21;11.48;;;10.48;;
52033;SDS011;38045;52.988;6.536;2023-08-06T08:15:46;10.40;;;9.40;;
52033;SDS011;38045;52.988;6.536;2023-08-06T08:18:12;9.55;;;8.57;;
52033;SDS011;38045;52.988;6.536;2023-08-06T08:20:38;10.27;;;8.75;;
52033;SDS011;38045;52.988;6.536;2023-08-06T08:23:03;9.30;;;8.52;;
52033;SDS011;38045;52.988;6.536;2023-08-06T08:25:29;8.82;;;7.95;;
52033;SDS011;38045;52.988;6.536;2023-08-06T08:27:56;8.23;;;7.45;;
52033;SDS011;38045;52.988;6.536;2023-08-06T08:30:22;9.20;;;8.32;;
52033;SDS011;38045;52.988;6.536;2023-08-06T08:32:49;7.45;;;6.75;;
52033;SDS011;38045;52.988;6.536;2023-08-06T08:35:15;10.98;;;8.80;;
52033;SDS011;38045;52.988;6.536;2023-08-06T08:37:41;7.32;;;6.60;;
52033;SDS011;38045;52.988;6.536;2023-08-06T08:40:08;7.68;;;6.97;;
52033;SDS011;38045;52.988;6.536;2023-08-06T08:42:34;7.70;;;6.93;;
52033;SDS011;38045;52.988;6.536;2023-08-06T08:45:01;8.27;;;7.50;;
52033;SDS011;38045;52.988;6.536;2023-08-06T08:47:28;8.63;;;7.70;;
52033;SDS011;38045;52.988;6.536;2023-08-06T08:49:54;8.05;;;7.35;;
52033;SDS011;38045;52.988;6.536;2023-08-06T08:52:21;8.02;;;7.32;;
52033;SDS011;38045;52.988;6.536;2023-08-06T08:54:47;8.57;;;7.80;;
52033;SDS011;38045;52.988;6.536;2023-08-06T08:57:18;8.95;;;8.13;;
52033;SDS011;38045;52.988;6.536;2023-08-06T08:59:44;8.02;;;7.32;;
52033;SDS011;38045;52.988;6.536;2023-08-06T09:02:11;7.38;;;6.68;;
52033;SDS011;38045;52.988;6.536;2023-08-06T09:04:39;7.53;;;6.82;;
52033;SDS011;38045;52.988;6.536;2023-08-06T09:07:05;7.68;;;7.07;;
52033;SDS011;38045;52.988;6.536;2023-08-06T09:09:35;8.45;;;7.78;;
52033;SDS011;38045;52.988;6.536;2023-08-06T09:12:05;8.77;;;7.88;;
52033;SDS011;38045;52.988;6.536;2023-08-06T09:14:37;7.68;;;7.07;;
52033;SDS011;38045;52.988;6.536;2023-08-06T09:17:03;7.13;;;6.50;;
52033;SDS011;38045;52.988;6.536;2023-08-06T09:19:31;9.85;;;7.13;;
52033;SDS011;38045;52.988;6.536;2023-08-06T09:21:57;7.15;;;6.07;;
52033;SDS011;38045;52.988;6.536;2023-08-06T09:24:22;6.57;;;5.97;;
52033;SDS011;38045;52.988;6.536;2023-08-06T09:26:48;6.85;;;6.22;;
52033;SDS011;38045;52.988;6.536;2023-08-06T09:29:14;5.25;;;4.75;;
52033;SDS011;38045;52.988;6.536;2023-08-06T09:31:43;5.28;;;4.88;;
52033;SDS011;38045;52.988;6.536;2023-08-06T09:34:16;4.57;;;4.10;;
52033;SDS011;38045;52.988;6.536;2023-08-06T09:36:48;4.65;;;4.25;;
52033;SDS011;38045;52.988;6.536;2023-08-06T09:39:28;4.68;;;4.07;;
52033;SDS011;38045;52.988;6.536;2023-08-06T09:41:58;4.57;;;4.00;;
52033;SDS011;38045;52.988;6.536;2023-08-06T09:44:28;5.68;;;4.32;;
52033;SDS011;38045;52.988;6.536;2023-08-06T09:46:55;6.10;;;4.10;;
52033;SDS011;38045;52.988;6.536;2023-08-06T09:49:25;3.45;;;3.03;;
52033;SDS011;38045;52.988;6.536;2023-08-06T09:51:53;3.25;;;2.95;;
52033;SDS011;38045;52.988;6.536;2023-08-06T09:54:24;2.78;;;2.58;;
52033;SDS011;38045;52.988;6.536;2023-08-06T09:56:52;2.53;;;2.42;;
52033;SDS011;38045;52.988;6.536;2023-08-06T09:59:18;2.72;;;2.60;;
52033;SDS011;38045;52.988;6.536;2023-08-06T10:01:44;2.58;;;2.38;;
52033;SDS011;38045;52.988;6.536;2023-08-06T10:04:11;2.78;;;2.58;;
52033;SDS011;38045;52.988;6.536;2023-08-06T10:06:41;2.83;;;2.55;;
52033;SDS011;38045;52.988;6.536;2023-08-06T10:09:08;3.42;;;3.22;;
52033;SDS011;38045;52.988;6.536;2023-08-06T10:11:34;5.13;;;2.83;;
52033;SDS011;38045;52.988;6.536;2023-08-06T10:14:04;7.38;;;3.30;;
52033;SDS011;38045;52.988;6.536;2023-08-06T10:16:33;2.42;;;2.28;;
52033;SDS011;38045;52.988;6.536;2023-08-06T10:19:00;2.97;;;2.55;;
52033;SDS011;38045;52.988;6.536;2023-08-06T10:21:30;2.33;;;2.13;;
52033;SDS011;38045;52.988;6.536;2023-08-06T10:23:57;2.45;;;2.00;;
52033;SDS011;38045;52.988;6.536;2023-08-06T10:26:28;2.70;;;2.00;;
52033;SDS011;38045;52.988;6.536;2023-08-06T10:28:55;2.22;;;2.03;;
52033;SDS011;38045;52.988;6.536;2023-08-06T10:34:20;3.25;;;1.65;;
52033;SDS011;38045;52.988;6.536;2023-08-06T10:36:46;3.13;;;2.42;;
52033;SDS011;38045;52.988;6.536;2023-08-06T10:39:14;2.03;;;1.83;;
52033;SDS011;38045;52.988;6.536;2023-08-06T10:41:42;2.30;;;2.10;;
52033;SDS011;38045;52.988;6.536;2023-08-06T10:44:09;2.53;;;2.05;;
52033;SDS011;38045;52.988;6.536;2023-08-06T10:46:36;2.08;;;1.90;;
52033;SDS011;38045;52.988;6.536;2023-08-06T10:49:02;2.45;;;2.25;;
52033;SDS011;38045;52.988;6.536;2023-08-06T10:51:29;2.15;;;1.95;;
52033;SDS011;38045;52.988;6.536;2023-08-06T10:53:55;2.15;;;2.00;;
52033;SDS011;38045;52.988;6.536;2023-08-06T10:56:23;1.60;;;1.50;;
52033;SDS011;38045;52.988;6.536;2023-08-06T10:58:55;1.90;;;1.80;;
52033;SDS011;38045;52.988;6.536;2023-08-06T11:01:22;1.85;;;1.75;;
52033;SDS011;38045;52.988;6.536;2023-08-06T11:03:49;2.20;;;2.10;;
52033;SDS011;38045;52.988;6.536;2023-08-06T11:06:19;1.50;;;1.40;;
52033;SDS011;38045;52.988;6.536;2023-08-06T11:08:49;2.63;;;2.42;;
52033;SDS011;38045;52.988;6.536;2023-08-06T11:11:18;1.48;;;1.38;;
52033;SDS011;38045;52.988;6.536;2023-08-06T11:13:44;2.03;;;1.63;;
52033;SDS011;38045;52.988;6.536;2023-08-06T11:16:12;2.30;;;2.13;;
52033;SDS011;38045;52.988;6.536;2023-08-06T11:18:39;2.38;;;2.17;;
52033;SDS011;38045;52.988;6.536;2023-08-06T11:21:05;2.97;;;2.67;;
52033;SDS011;38045;52.988;6.536;2023-08-06T11:23:32;4.07;;;2.10;;
52033;SDS011;38045;52.988;6.536;2023-08-06T11:26:00;3.88;;;2.20;;
52033;SDS011;38045;52.988;6.536;2023-08-06T11:28:25;3.25;;;1.92;;
52033;SDS011;38045;52.988;6.536;2023-08-06T11:30:51;1.50;;;1.40;;
52033;SDS011;38045;52.988;6.536;2023-08-06T11:33:21;2.58;;;2.38;;
52033;SDS011;38045;52.988;6.536;2023-08-06T11:35:47;2.00;;;1.90;;
52033;SDS011;38045;52.988;6.536;2023-08-06T11:38:14;1.27;;;1.20;;
52033;SDS011;38045;52.988;6.536;2023-08-06T11:40:41;3.25;;;2.08;;
52033;SDS011;38045;52.988;6.536;2023-08-06T11:43:08;1.77;;;1.67;;
52033;SDS011;38045;52.988;6.536;2023-08-06T11:45:35;2.13;;;1.92;;
52033;SDS011;38045;52.988;6.536;2023-08-06T11:48:00;2.20;;;1.75;;
52033;SDS011;38045;52.988;6.536;2023-08-06T11:50:27;3.00;;;1.58;;
52033;SDS011;38045;52.988;6.536;2023-08-06T11:52:56;3.15;;;1.23;;
52033;SDS011;38045;52.988;6.536;2023-08-06T11:55:24;2.28;;;1.40;;
52033;SDS011;38045;52.988;6.536;2023-08-06T11:57:50;1.73;;;1.63;;
52033;SDS011;38045;52.988;6.536;2023-08-06T12:00:16;2.13;;;1.75;;
52033;SDS011;38045;52.988;6.536;2023-08-06T12:02:43;1.30;;;1.20;;
52033;SDS011;38045;52.988;6.536;2023-08-06T12:05:11;1.88;;;1.77;;
52033;SDS011;38045;52.988;6.536;2023-08-06T12:07:39;1.55;;;1.45;;
52033;SDS011;38045;52.988;6.536;2023-08-06T12:10:12;2.60;;;1.30;;
52033;SDS011;38045;52.988;6.536;2023-08-06T12:12:39;1.85;;;1.42;;
52033;SDS011;38045;52.988;6.536;2023-08-06T12:15:06;2.15;;;1.77;;
52033;SDS011;38045;52.988;6.536;2023-08-06T12:17:32;2.53;;;1.50;;
52033;SDS011;38045;52.988;6.536;2023-08-06T12:19:58;1.73;;;1.60;;
52033;SDS011;38045;52.988;6.536;2023-08-06T12:22:24;3.33;;;3.13;;
52033;SDS011;38045;52.988;6.536;2023-08-06T12:24:50;2.72;;;2.33;;
52033;SDS011;38045;52.988;6.536;2023-08-06T12:27:15;1.90;;;1.80;;
52033;SDS011;38045;52.988;6.536;2023-08-06T12:29:45;1.42;;;1.33;;
52033;SDS011;38045;52.988;6.536;2023-08-06T12:32:12;2.58;;;1.50;;
52033;SDS011;38045;52.988;6.536;2023-08-06T12:34:38;2.10;;;1.75;;
52033;SDS011;38045;52.988;6.536;2023-08-06T12:37:05;1.73;;;1.63;;
52033;SDS011;38045;52.988;6.536;2023-08-06T12:39:32;3.85;;;2.13;;
52033;SDS011;38045;52.988;6.536;2023-08-06T12:41:59;1.75;;;1.50;;
52033;SDS011;38045;52.988;6.536;2023-08-06T12:44:25;1.70;;;1.60;;
52033;SDS011;38045;52.988;6.536;2023-08-06T12:46:51;2.05;;;1.92;;
52033;SDS011;38045;52.988;6.536;2023-08-06T12:49:18;2.30;;;1.83;;
52033;SDS011;38045;52.988;6.536;2023-08-06T12:51:46;2.50;;;2.30;;
52033;SDS011;38045;52.988;6.536;2023-08-06T12:54:12;1.85;;;1.58;;
52033;SDS011;38045;52.988;6.536;2023-08-06T12:56:38;2.25;;;1.77;;
52033;SDS011;38045;52.988;6.536;2023-08-06T12:59:04;1.60;;;1.50;;
52033;SDS011;38045;52.988;6.536;2023-08-06T13:01:29;2.10;;;1.90;;
52033;SDS011;38045;52.988;6.536;2023-08-06T13:03:55;5.90;;;2.70;;
52033;SDS011;38045;52.988;6.536;2023-08-06T13:06:21;2.63;;;1.58;;
52033;SDS011;38045;52.988;6.536;2023-08-06T13:08:46;1.95;;;1.75;;
52033;SDS011;38045;52.988;6.536;2023-08-06T13:11:12;2.95;;;1.70;;
52033;SDS011;38045;52.988;6.536;2023-08-06T13:13:38;1.95;;;1.83;;
52033;SDS011;38045;52.988;6.536;2023-08-06T13:16:03;2.60;;;1.70;;
52033;SDS011;38045;52.988;6.536;2023-08-06T13:18:29;2.13;;;1.92;;
52033;SDS011;38045;52.988;6.536;2023-08-06T13:20:56;1.40;;;1.30;;
52033;SDS011;38045;52.988;6.536;2023-08-06T13:23:21;1.98;;;1.80;;
52033;SDS011;38045;52.988;6.536;2023-08-06T13:25:47;2.60;;;1.40;;
52033;SDS011;38045;52.988;6.536;2023-08-06T13:28:13;2.45;;;2.22;;
52033;SDS011;38045;52.988;6.536;2023-08-06T13:30:41;6.80;;;2.20;;
52033;SDS011;38045;52.988;6.536;2023-08-06T13:33:10;3.72;;;2.33;;
52033;SDS011;38045;52.988;6.536;2023-08-06T13:38:02;2.40;;;2.20;;
52033;SDS011;38045;52.988;6.536;2023-08-06T13:40:32;2.22;;;1.63;;
52033;SDS011;38045;52.988;6.536;2023-08-06T13:42:58;2.00;;;1.63;;
52033;SDS011;38045;52.988;6.536;2023-08-06T13:45:24;4.88;;;1.80;;
52033;SDS011;38045;52.988;6.536;2023-08-06T13:47:50;2.50;;;2.25;;
52033;SDS011;38045;52.988;6.536;2023-08-06T13:50:15;1.85;;;1.75;;
52033;SDS011;38045;52.988;6.536;2023-08-06T13:52:41;1.73;;;1.63;;
52033;SDS011;38045;52.988;6.536;2023-08-06T13:55:07;3.15;;;2.03;;
52033;SDS011;38045;52.988;6.536;2023-08-06T13:57:36;2.55;;;2.35;;
52033;SDS011;38045;52.988;6.536;2023-08-06T14:00:02;2.45;;;1.65;;
52033;SDS011;38045;52.988;6.536;2023-08-06T14:02:28;5.38;;;1.80;;
52033;SDS011;38045;52.988;6.536;2023-08-06T14:04:54;2.78;;;2.17;;
52033;SDS011;38045;52.988;6.536;2023-08-06T14:07:20;1.98;;;1.88;;
52033;SDS011;38045;52.988;6.536;2023-08-06T14:09:46;3.17;;;1.83;;
52033;SDS011;38045;52.988;6.536;2023-08-06T14:12:12;2.30;;;2.10;;
52033;SDS011;38045;52.988;6.536;2023-08-06T14:14:38;2.80;;;2.60;;
52033;SDS011;38045;52.988;6.536;2023-08-06T14:17:04;2.33;;;2.13;;
52033;SDS011;38045;52.988;6.536;2023-08-06T14:19:30;1.85;;;1.75;;
52033;SDS011;38045;52.988;6.536;2023-08-06T14:21:55;1.70;;;1.60;;
52033;SDS011;38045;52.988;6.536;2023-08-06T14:24:21;2.95;;;1.75;;
52033;SDS011;38045;52.988;6.536;2023-08-06T14:26:47;3.72;;;2.30;;
52033;SDS011;38045;52.988;6.536;2023-08-06T14:29:12;1.38;;;1.27;;
52033;SDS011;38045;52.988;6.536;2023-08-06T14:31:39;3.17;;;2.10;;
52033;SDS011;38045;52.988;6.536;2023-08-06T14:34:05;1.38;;;1.27;;
52033;SDS011;38045;52.988;6.536;2023-08-06T14:36:30;2.75;;;1.85;;
52033;SDS011;38045;52.988;6.536;2023-08-06T14:38:56;2.70;;;1.73;;
52033;SDS011;38045;52.988;6.536;2023-08-06T14:41:22;2.38;;;1.90;;
52033;SDS011;38045;52.988;6.536;2023-08-06T14:43:47;2.90;;;1.88;;
52033;SDS011;38045;52.988;6.536;2023-08-06T14:46:13;2.97;;;1.48;;
52033;SDS011;38045;52.988;6.536;2023-08-06T14:48:38;3.13;;;2.33;;
52033;SDS011;38045;52.988;6.536;2023-08-06T14:51:04;2.92;;;2.03;;